sensor_id;sensor_type;location;lat;lon;timestamp;P1;durP1;ratioP1;P2;durP2;ratioP2
47784;SDS011;35233;55.686;37.848;2023-03-16T00:00:38;6.18;;;4.90;;
47784;SDS011;35233;55.686;37.848;2023-03-16T00:03:03;7.68;;;5.13;;
47784;SDS011;35233;55.686;37.848;2023-03-16T00:05:29;5.95;;;5.00;;
47784;SDS011;35233;55.686;37.848;2023-03-16T00:07:54;6.13;;;4.78;;
47784;SDS011;35233;55.686;37.848;2023-03-16T00:10:20;6.00;;;5.07;;
47784;SDS011;35233;55.686;37.848;2023-03-16T00:12:51;5.47;;;4.47;;
47784;SDS011;35233;55.686;37.848;2023-03-16T00:15:20;5.68;;;4.68;;
47784;SDS011;35233;55.686;37.848;2023-03-16T00:17:45;5.70;;;4.72;;
47784;SDS011;35233;55.686;37.848;2023-03-16T00:20:16;5.30;;;4.80;;
47784;SDS011;35233;55.686;37.848;2023-03-16T00:22:43;5.45;;;4.70;;
47784;SDS011;35233;55.686;37.848;2023-03-16T00:25:09;8.18;;;4.78;;
47784;SDS011;35233;55.686;37.848;2023-03-16T00:27:36;5.63;;;4.50;;
47784;SDS011;35233;55.686;37.848;2023-03-16T00:30:02;5.88;;;5.00;;
47784;SDS011;35233;55.686;37.848;2023-03-16T00:32:33;6.18;;;4.78;;
47784;SDS011;35233;55.686;37.848;2023-03-16T00:35:00;5.95;;;4.97;;
47784;SDS011;35233;55.686;37.848;2023-03-16T00:37:27;5.93;;;4.70;;
47784;SDS011;35233;55.686;37.848;2023-03-16T00:39:53;5.25;;;4.47;;
47784;SDS011;35233;55.686;37.848;2023-03-16T00:42:20;5.65;;;4.35;;
47784;SDS011;35233;55.686;37.848;2023-03-16T00:44:51;6.07;;;4.78;;
47784;SDS011;35233;55.686;37.848;2023-03-16T00:47:21;5.65;;;4.50;;
47784;SDS011;35233;55.686;37.848;2023-03-16T00:49:47;4.97;;;4.47;;
47784;SDS011;35233;55.686;37.848;2023-03-16T00:52:13;6.25;;;4.80;;
47784;SDS011;35233;55.686;37.848;2023-03-16T00:54:39;5.60;;;4.43;;
47784;SDS011;35233;55.686;37.848;2023-03-16T00:57:06;5.85;;;4.35;;
47784;SDS011;35233;55.686;37.848;2023-03-16T00:59:33;5.38;;;4.68;;
47784;SDS011;35233;55.686;37.848;2023-03-16T01:02:02;6.80;;;4.88;;
47784;SDS011;35233;55.686;37.848;2023-03-16T01:04:28;7.03;;;4.80;;
47784;SDS011;35233;55.686;37.848;2023-03-16T01:06:54;5.65;;;4.57;;
47784;SDS011;35233;55.686;37.848;2023-03-16T01:09:19;5.78;;;4.22;;
47784;SDS011;35233;55.686;37.848;2023-03-16T01:11:45;5.28;;;4.32;;
47784;SDS011;35233;55.686;37.848;2023-03-16T01:14:14;5.28;;;4.20;;
47784;SDS011;35233;55.686;37.848;2023-03-16T01:16:40;5.18;;;4.10;;
47784;SDS011;35233;55.686;37.848;2023-03-16T01:19:09;5.47;;;4.35;;
47784;SDS011;35233;55.686;37.848;2023-03-16T01:21:37;6.22;;;4.43;;
47784;SDS011;35233;55.686;37.848;2023-03-16T01:24:03;5.72;;;4.50;;
47784;SDS011;35233;55.686;37.848;2023-03-16T01:26:29;5.43;;;4.38;;
47784;SDS011;35233;55.686;37.848;2023-03-16T01:28:54;5.80;;;4.55;;
47784;SDS011;35233;55.686;37.848;2023-03-16T01:31:20;4.85;;;4.35;;
47784;SDS011;35233;55.686;37.848;2023-03-16T01:33:45;5.55;;;4.40;;
47784;SDS011;35233;55.686;37.848;2023-03-16T01:36:12;6.45;;;4.55;;
47784;SDS011;35233;55.686;37.848;2023-03-16T01:38:39;5.13;;;4.18;;
47784;SDS011;35233;55.686;37.848;2023-03-16T01:41:05;5.95;;;3.97;;
47784;SDS011;35233;55.686;37.848;2023-03-16T01:43:31;4.95;;;4.20;;
47784;SDS011;35233;55.686;37.848;2023-03-16T01:48:30;6.15;;;4.00;;
47784;SDS011;35233;55.686;37.848;2023-03-16T01:51:01;6.13;;;4.47;;
47784;SDS011;35233;55.686;37.848;2023-03-16T01:53:31;5.05;;;4.00;;
47784;SDS011;35233;55.686;37.848;2023-03-16T01:55:58;5.22;;;4.30;;
47784;SDS011;35233;55.686;37.848;2023-03-16T01:58:27;5.45;;;4.60;;
47784;SDS011;35233;55.686;37.848;2023-03-16T02:00:55;5.55;;;4.22;;
47784;SDS011;35233;55.686;37.848;2023-03-16T02:03:22;5.85;;;4.03;;
47784;SDS011;35233;55.686;37.848;2023-03-16T02:06:01;5.90;;;4.40;;
47784;SDS011;35233;55.686;37.848;2023-03-16T02:08:29;5.03;;;3.92;;
47784;SDS011;35233;55.686;37.848;2023-03-16T02:10:55;6.22;;;4.28;;
47784;SDS011;35233;55.686;37.848;2023-03-16T02:13:22;6.45;;;3.80;;
47784;SDS011;35233;55.686;37.848;2023-03-16T02:15:49;5.53;;;4.20;;
47784;SDS011;35233;55.686;37.848;2023-03-16T02:18:16;5.20;;;3.95;;
47784;SDS011;35233;55.686;37.848;2023-03-16T02:20:51;4.97;;;4.10;;
47784;SDS011;35233;55.686;37.848;2023-03-16T02:23:40;4.65;;;3.83;;
47784;SDS011;35233;55.686;37.848;2023-03-16T02:26:28;5.10;;;4.15;;
47784;SDS011;35233;55.686;37.848;2023-03-16T02:32:10;5.72;;;3.85;;
47784;SDS011;35233;55.686;37.848;2023-03-16T02:34:38;6.93;;;3.90;;
47784;SDS011;35233;55.686;37.848;2023-03-16T02:37:03;4.75;;;3.80;;
47784;SDS011;35233;55.686;37.848;2023-03-16T02:39:30;5.03;;;4.05;;
47784;SDS011;35233;55.686;37.848;2023-03-16T02:41:55;5.22;;;4.25;;
47784;SDS011;35233;55.686;37.848;2023-03-16T02:44:22;4.70;;;3.65;;
47784;SDS011;35233;55.686;37.848;2023-03-16T02:46:55;5.00;;;3.70;;
47784;SDS011;35233;55.686;37.848;2023-03-16T02:49:38;4.80;;;4.07;;
47784;SDS011;35233;55.686;37.848;2023-03-16T02:52:08;4.68;;;3.75;;
47784;SDS011;35233;55.686;37.848;2023-03-16T02:54:34;5.50;;;3.53;;
47784;SDS011;35233;55.686;37.848;2023-03-16T02:56:59;4.20;;;3.55;;
47784;SDS011;35233;55.686;37.848;2023-03-16T02:59:25;4.25;;;3.65;;
47784;SDS011;35233;55.686;37.848;2023-03-16T03:01:50;4.65;;;3.75;;
47784;SDS011;35233;55.686;37.848;2023-03-16T03:04:16;5.18;;;3.85;;
47784;SDS011;35233;55.686;37.848;2023-03-16T03:06:42;4.57;;;3.40;;
47784;SDS011;35233;55.686;37.848;2023-03-16T03:09:08;5.03;;;4.00;;
47784;SDS011;35233;55.686;37.848;2023-03-16T03:11:37;6.25;;;4.22;;
47784;SDS011;35233;55.686;37.848;2023-03-16T03:14:03;6.18;;;3.65;;
47784;SDS011;35233;55.686;37.848;2023-03-16T03:16:29;4.90;;;3.70;;
47784;SDS011;35233;55.686;37.848;2023-03-16T03:18:55;5.13;;;3.83;;
47784;SDS011;35233;55.686;37.848;2023-03-16T03:21:21;5.82;;;3.53;;
47784;SDS011;35233;55.686;37.848;2023-03-16T03:23:50;4.40;;;3.70;;
47784;SDS011;35233;55.686;37.848;2023-03-16T03:26:16;4.63;;;3.70;;
47784;SDS011;35233;55.686;37.848;2023-03-16T03:28:42;5.90;;;3.70;;
47784;SDS011;35233;55.686;37.848;2023-03-16T03:31:15;5.45;;;3.88;;
47784;SDS011;35233;55.686;37.848;2023-03-16T03:33:42;4.18;;;3.60;;
47784;SDS011;35233;55.686;37.848;2023-03-16T03:36:08;4.28;;;3.50;;
47784;SDS011;35233;55.686;37.848;2023-03-16T03:38:35;5.07;;;3.78;;
47784;SDS011;35233;55.686;37.848;2023-03-16T03:41:01;4.28;;;3.30;;
47784;SDS011;35233;55.686;37.848;2023-03-16T03:43:27;4.85;;;3.70;;
47784;SDS011;35233;55.686;37.848;2023-03-16T03:45:59;5.43;;;3.70;;
47784;SDS011;35233;55.686;37.848;2023-03-16T03:48:25;4.45;;;3.50;;
47784;SDS011;35233;55.686;37.848;2023-03-16T03:50:51;6.35;;;3.95;;
47784;SDS011;35233;55.686;37.848;2023-03-16T03:53:17;4.15;;;3.38;;
47784;SDS011;35233;55.686;37.848;2023-03-16T03:55:43;4.40;;;3.42;;
47784;SDS011;35233;55.686;37.848;2023-03-16T03:58:08;5.00;;;3.90;;
47784;SDS011;35233;55.686;37.848;2023-03-16T04:00:34;4.50;;;3.53;;
47784;SDS011;35233;55.686;37.848;2023-03-16T04:02:59;5.95;;;4.05;;
47784;SDS011;35233;55.686;37.848;2023-03-16T04:05:25;5.10;;;3.70;;
47784;SDS011;35233;55.686;37.848;2023-03-16T04:07:54;5.38;;;3.67;;
47784;SDS011;35233;55.686;37.848;2023-03-16T04:10:22;5.60;;;3.53;;
47784;SDS011;35233;55.686;37.848;2023-03-16T04:12:49;4.63;;;3.75;;
47784;SDS011;35233;55.686;37.848;2023-03-16T04:15:14;4.82;;;3.60;;
47784;SDS011;35233;55.686;37.848;2023-03-16T04:17:40;4.38;;;3.40;;
47784;SDS011;35233;55.686;37.848;2023-03-16T04:20:06;4.60;;;3.70;;
47784;SDS011;35233;55.686;37.848;2023-03-16T04:22:38;4.47;;;3.60;;
47784;SDS011;35233;55.686;37.848;2023-03-16T04:25:03;4.38;;;3.17;;
47784;SDS011;35233;55.686;37.848;2023-03-16T04:27:29;4.75;;;3.70;;
47784;SDS011;35233;55.686;37.848;2023-03-16T04:30:01;4.90;;;3.80;;
47784;SDS011;35233;55.686;37.848;2023-03-16T04:32:29;4.50;;;3.42;;
47784;SDS011;35233;55.686;37.848;2023-03-16T04:34:55;4.78;;;3.50;;
47784;SDS011;35233;55.686;37.848;2023-03-16T04:37:21;4.43;;;3.40;;
47784;SDS011;35233;55.686;37.848;2023-03-16T04:39:47;4.32;;;3.47;;
47784;SDS011;35233;55.686;37.848;2023-03-16T04:42:12;4.68;;;3.55;;
47784;SDS011;35233;55.686;37.848;2023-03-16T04:44:38;4.82;;;3.55;;
47784;SDS011;35233;55.686;37.848;2023-03-16T04:47:11;4.20;;;3.63;;
47784;SDS011;35233;55.686;37.848;2023-03-16T04:49:37;6.00;;;3.60;;
47784;SDS011;35233;55.686;37.848;2023-03-16T04:52:03;5.32;;;3.58;;
47784;SDS011;35233;55.686;37.848;2023-03-16T04:54:29;6.15;;;3.92;;
47784;SDS011;35233;55.686;37.848;2023-03-16T04:56:56;8.40;;;3.78;;
47784;SDS011;35233;55.686;37.848;2023-03-16T04:59:21;5.45;;;3.88;;
47784;SDS011;35233;55.686;37.848;2023-03-16T05:01:48;6.65;;;3.75;;
47784;SDS011;35233;55.686;37.848;2023-03-16T05:04:13;7.35;;;3.47;;
47784;SDS011;35233;55.686;37.848;2023-03-16T05:06:39;11.05;;;4.00;;
47784;SDS011;35233;55.686;37.848;2023-03-16T05:09:05;10.98;;;4.30;;
47784;SDS011;35233;55.686;37.848;2023-03-16T05:11:32;9.90;;;5.70;;
47784;SDS011;35233;55.686;37.848;2023-03-16T05:13:58;9.98;;;6.43;;
47784;SDS011;35233;55.686;37.848;2023-03-16T05:16:26;11.32;;;6.50;;
47784;SDS011;35233;55.686;37.848;2023-03-16T05:18:52;10.23;;;7.43;;
47784;SDS011;35233;55.686;37.848;2023-03-16T05:21:17;11.38;;;6.80;;
47784;SDS011;35233;55.686;37.848;2023-03-16T05:23:44;9.15;;;6.50;;
47784;SDS011;35233;55.686;37.848;2023-03-16T05:26:10;12.10;;;6.53;;
47784;SDS011;35233;55.686;37.848;2023-03-16T05:28:37;9.27;;;6.20;;
47784;SDS011;35233;55.686;37.848;2023-03-16T05:31:04;8.35;;;5.90;;
47784;SDS011;35233;55.686;37.848;2023-03-16T05:33:29;8.45;;;5.53;;
47784;SDS011;35233;55.686;37.848;2023-03-16T05:35:55;8.57;;;5.90;;
47784;SDS011;35233;55.686;37.848;2023-03-16T05:38:22;8.60;;;5.55;;
47784;SDS011;35233;55.686;37.848;2023-03-16T05:40:48;13.65;;;5.60;;
47784;SDS011;35233;55.686;37.848;2023-03-16T05:43:18;8.82;;;5.80;;
47784;SDS011;35233;55.686;37.848;2023-03-16T05:45:45;8.02;;;5.68;;
47784;SDS011;35233;55.686;37.848;2023-03-16T05:48:10;12.45;;;5.90;;
47784;SDS011;35233;55.686;37.848;2023-03-16T05:50:36;8.20;;;5.50;;
47784;SDS011;35233;55.686;37.848;2023-03-16T05:53:02;9.75;;;5.72;;
47784;SDS011;35233;55.686;37.848;2023-03-16T05:55:28;8.85;;;5.80;;
47784;SDS011;35233;55.686;37.848;2023-03-16T05:57:54;9.52;;;5.82;;
47784;SDS011;35233;55.686;37.848;2023-03-16T06:00:20;8.52;;;5.93;;
47784;SDS011;35233;55.686;37.848;2023-03-16T06:02:48;9.25;;;6.07;;
47784;SDS011;35233;55.686;37.848;2023-03-16T06:05:16;11.10;;;6.95;;
47784;SDS011;35233;55.686;37.848;2023-03-16T06:07:43;9.35;;;5.95;;
47784;SDS011;35233;55.686;37.848;2023-03-16T06:10:09;10.25;;;6.05;;
47784;SDS011;35233;55.686;37.848;2023-03-16T06:12:36;8.98;;;5.40;;
47784;SDS011;35233;55.686;37.848;2023-03-16T06:15:02;10.20;;;6.20;;
47784;SDS011;35233;55.686;37.848;2023-03-16T06:17:32;8.55;;;5.65;;
47784;SDS011;35233;55.686;37.848;2023-03-16T06:19:59;11.75;;;5.43;;
47784;SDS011;35233;55.686;37.848;2023-03-16T06:22:25;9.77;;;5.30;;
47784;SDS011;35233;55.686;37.848;2023-03-16T06:24:51;10.27;;;5.75;;
47784;SDS011;35233;55.686;37.848;2023-03-16T06:27:17;9.95;;;5.75;;
47784;SDS011;35233;55.686;37.848;2023-03-16T06:29:46;8.60;;;5.13;;
47784;SDS011;35233;55.686;37.848;2023-03-16T06:32:12;14.80;;;6.25;;
47784;SDS011;35233;55.686;37.848;2023-03-16T06:34:38;9.73;;;5.53;;
47784;SDS011;35233;55.686;37.848;2023-03-16T06:37:05;8.02;;;5.47;;
47784;SDS011;35233;55.686;37.848;2023-03-16T06:39:31;8.35;;;5.18;;
47784;SDS011;35233;55.686;37.848;2023-03-16T06:41:57;9.13;;;5.57;;
47784;SDS011;35233;55.686;37.848;2023-03-16T06:44:23;7.93;;;5.53;;
47784;SDS011;35233;55.686;37.848;2023-03-16T06:46:48;8.40;;;5.50;;
47784;SDS011;35233;55.686;37.848;2023-03-16T06:49:16;8.23;;;5.43;;
47784;SDS011;35233;55.686;37.848;2023-03-16T06:51:41;7.05;;;5.38;;
47784;SDS011;35233;55.686;37.848;2023-03-16T06:54:07;8.55;;;5.22;;
47784;SDS011;35233;55.686;37.848;2023-03-16T06:56:32;11.25;;;5.30;;
47784;SDS011;35233;55.686;37.848;2023-03-16T06:58:58;13.60;;;5.60;;
47784;SDS011;35233;55.686;37.848;2023-03-16T07:01:24;12.60;;;5.45;;
47784;SDS011;35233;55.686;37.848;2023-03-16T07:03:49;10.90;;;5.22;;
47784;SDS011;35233;55.686;37.848;2023-03-16T07:06:15;9.52;;;5.50;;
47784;SDS011;35233;55.686;37.848;2023-03-16T07:08:41;8.13;;;5.38;;
47784;SDS011;35233;55.686;37.848;2023-03-16T07:11:07;9.90;;;5.72;;
47784;SDS011;35233;55.686;37.848;2023-03-16T07:13:33;8.60;;;5.47;;
47784;SDS011;35233;55.686;37.848;2023-03-16T07:15:59;8.80;;;6.13;;
47784;SDS011;35233;55.686;37.848;2023-03-16T07:18:25;8.75;;;5.78;;
47784;SDS011;35233;55.686;37.848;2023-03-16T07:20:52;7.50;;;5.40;;
47784;SDS011;35233;55.686;37.848;2023-03-16T07:23:19;10.07;;;6.65;;
47784;SDS011;35233;55.686;37.848;2023-03-16T07:25:44;7.07;;;5.50;;
47784;SDS011;35233;55.686;37.848;2023-03-16T07:28:10;8.80;;;6.35;;
47784;SDS011;35233;55.686;37.848;2023-03-16T07:30:36;7.07;;;5.38;;
47784;SDS011;35233;55.686;37.848;2023-03-16T07:33:02;9.45;;;6.13;;
47784;SDS011;35233;55.686;37.848;2023-03-16T07:35:29;7.43;;;5.53;;
47784;SDS011;35233;55.686;37.848;2023-03-16T07:37:55;9.30;;;5.75;;
47784;SDS011;35233;55.686;37.848;2023-03-16T07:40:22;10.45;;;5.70;;
47784;SDS011;35233;55.686;37.848;2023-03-16T07:42:48;10.88;;;6.32;;
47784;SDS011;35233;55.686;37.848;2023-03-16T07:45:14;9.25;;;6.30;;
47784;SDS011;35233;55.686;37.848;2023-03-16T07:47:42;8.95;;;6.40;;
47784;SDS011;35233;55.686;37.848;2023-03-16T07:50:08;8.32;;;6.30;;
47784;SDS011;35233;55.686;37.848;2023-03-16T07:52:35;8.50;;;6.97;;
47784;SDS011;35233;55.686;37.848;2023-03-16T07:55:01;10.13;;;7.32;;
47784;SDS011;35233;55.686;37.848;2023-03-16T07:57:26;10.45;;;8.15;;
47784;SDS011;35233;55.686;37.848;2023-03-16T07:59:52;11.32;;;7.68;;
47784;SDS011;35233;55.686;37.848;2023-03-16T08:02:17;10.82;;;7.75;;
47784;SDS011;35233;55.686;37.848;2023-03-16T08:04:45;10.07;;;7.82;;
47784;SDS011;35233;55.686;37.848;2023-03-16T08:07:12;10.00;;;7.80;;
47784;SDS011;35233;55.686;37.848;2023-03-16T08:09:39;9.98;;;8.05;;
47784;SDS011;35233;55.686;37.848;2023-03-16T08:12:05;10.45;;;7.82;;
47784;SDS011;35233;55.686;37.848;2023-03-16T08:14:32;10.82;;;8.18;;
47784;SDS011;35233;55.686;37.848;2023-03-16T08:16:59;11.30;;;8.55;;
47784;SDS011;35233;55.686;37.848;2023-03-16T08:19:29;11.77;;;8.68;;
47784;SDS011;35233;55.686;37.848;2023-03-16T08:21:56;14.90;;;9.07;;
47784;SDS011;35233;55.686;37.848;2023-03-16T08:24:25;11.73;;;8.98;;
47784;SDS011;35233;55.686;37.848;2023-03-16T08:26:51;11.93;;;9.50;;
47784;SDS011;35233;55.686;37.848;2023-03-16T08:29:17;12.27;;;9.57;;
47784;SDS011;35233;55.686;37.848;2023-03-16T08:31:43;13.15;;;9.65;;
47784;SDS011;35233;55.686;37.848;2023-03-16T08:34:09;11.27;;;9.10;;
47784;SDS011;35233;55.686;37.848;2023-03-16T08:36:35;12.65;;;9.90;;
47784;SDS011;35233;55.686;37.848;2023-03-16T08:39:01;11.77;;;9.82;;
47784;SDS011;35233;55.686;37.848;2023-03-16T08:41:28;12.20;;;10.30;;
47784;SDS011;35233;55.686;37.848;2023-03-16T08:43:55;13.23;;;11.15;;
47784;SDS011;35233;55.686;37.848;2023-03-16T08:46:21;15.57;;;12.52;;
47784;SDS011;35233;55.686;37.848;2023-03-16T08:48:48;15.70;;;12.80;;
47784;SDS011;35233;55.686;37.848;2023-03-16T08:51:14;15.35;;;12.73;;
47784;SDS011;35233;55.686;37.848;2023-03-16T08:53:41;14.48;;;12.18;;
47784;SDS011;35233;55.686;37.848;2023-03-16T08:56:11;16.10;;;12.93;;
47784;SDS011;35233;55.686;37.848;2023-03-16T08:58:38;15.45;;;12.80;;
47784;SDS011;35233;55.686;37.848;2023-03-16T09:01:09;14.70;;;12.20;;
47784;SDS011;35233;55.686;37.848;2023-03-16T09:03:37;14.15;;;12.32;;
47784;SDS011;35233;55.686;37.848;2023-03-16T09:06:06;14.93;;;12.68;;
47784;SDS011;35233;55.686;37.848;2023-03-16T09:08:34;16.90;;;12.65;;
47784;SDS011;35233;55.686;37.848;2023-03-16T09:11:00;16.73;;;13.40;;
47784;SDS011;35233;55.686;37.848;2023-03-16T09:13:28;16.58;;;14.10;;
47784;SDS011;35233;55.686;37.848;2023-03-16T09:15:54;16.00;;;13.25;;
47784;SDS011;35233;55.686;37.848;2023-03-16T09:18:20;17.85;;;14.38;;
47784;SDS011;35233;55.686;37.848;2023-03-16T09:20:47;17.80;;;13.45;;
47784;SDS011;35233;55.686;37.848;2023-03-16T09:23:14;16.65;;;13.57;;
47784;SDS011;35233;55.686;37.848;2023-03-16T09:25:39;15.45;;;13.23;;
47784;SDS011;35233;55.686;37.848;2023-03-16T09:28:05;14.98;;;12.80;;
47784;SDS011;35233;55.686;37.848;2023-03-16T09:30:31;15.45;;;13.32;;
47784;SDS011;35233;55.686;37.848;2023-03-16T09:32:57;18.48;;;13.52;;
47784;SDS011;35233;55.686;37.848;2023-03-16T09:35:23;14.60;;;12.68;;
47784;SDS011;35233;55.686;37.848;2023-03-16T09:37:49;14.68;;;12.80;;
47784;SDS011;35233;55.686;37.848;2023-03-16T09:40:22;15.60;;;12.57;;
47784;SDS011;35233;55.686;37.848;2023-03-16T09:48:47;14.88;;;12.23;;
47784;SDS011;35233;55.686;37.848;2023-03-16T09:51:17;14.93;;;12.40;;
47784;SDS011;35233;55.686;37.848;2023-03-16T09:53:47;14.90;;;12.07;;
47784;SDS011;35233;55.686;37.848;2023-03-16T09:56:19;13.98;;;11.77;;
47784;SDS011;35233;55.686;37.848;2023-03-16T09:58:53;13.85;;;11.63;;
47784;SDS011;35233;55.686;37.848;2023-03-16T10:09:44;15.77;;;13.00;;
47784;SDS011;35233;55.686;37.848;2023-03-16T10:12:18;17.05;;;13.48;;
47784;SDS011;35233;55.686;37.848;2023-03-16T10:14:51;17.27;;;14.20;;
47784;SDS011;35233;55.686;37.848;2023-03-16T10:17:24;20.67;;;16.33;;
47784;SDS011;35233;55.686;37.848;2023-03-16T10:19:56;20.45;;;16.88;;
47784;SDS011;35233;55.686;37.848;2023-03-16T10:22:32;21.02;;;17.30;;
47784;SDS011;35233;55.686;37.848;2023-03-16T10:27:44;22.15;;;16.58;;
47784;SDS011;35233;55.686;37.848;2023-03-16T10:32:38;19.80;;;15.35;;
47784;SDS011;35233;55.686;37.848;2023-03-16T10:35:06;19.00;;;15.65;;
47784;SDS011;35233;55.686;37.848;2023-03-16T10:37:43;20.02;;;15.95;;
47784;SDS011;35233;55.686;37.848;2023-03-16T10:40:10;19.48;;;16.13;;
47784;SDS011;35233;55.686;37.848;2023-03-16T10:42:37;22.65;;;16.30;;
47784;SDS011;35233;55.686;37.848;2023-03-16T10:45:03;19.10;;;15.57;;
47784;SDS011;35233;55.686;37.848;2023-03-16T10:47:30;18.67;;;15.60;;
47784;SDS011;35233;55.686;37.848;2023-03-16T10:49:57;20.85;;;15.55;;
47784;SDS011;35233;55.686;37.848;2023-03-16T10:52:33;17.48;;;14.65;;
47784;SDS011;35233;55.686;37.848;2023-03-16T10:55:00;18.50;;;14.88;;
47784;SDS011;35233;55.686;37.848;2023-03-16T10:57:34;18.67;;;14.93;;
47784;SDS011;35233;55.686;37.848;2023-03-16T11:00:35;16.67;;;13.93;;
47784;SDS011;35233;55.686;37.848;2023-03-16T11:02:55;15.93;;;14.18;;
47784;SDS011;35233;55.686;37.848;2023-03-16T11:08:00;17.13;;;14.65;;
47784;SDS011;35233;55.686;37.848;2023-03-16T11:10:34;16.95;;;13.77;;
47784;SDS011;35233;55.686;37.848;2023-03-16T11:15:36;17.10;;;14.13;;
47784;SDS011;35233;55.686;37.848;2023-03-16T11:18:09;17.17;;;14.63;;
47784;SDS011;35233;55.686;37.848;2023-03-16T11:20:46;17.92;;;14.48;;
47784;SDS011;35233;55.686;37.848;2023-03-16T11:23:13;16.10;;;13.40;;
47784;SDS011;35233;55.686;37.848;2023-03-16T11:25:43;15.25;;;13.65;;
47784;SDS011;35233;55.686;37.848;2023-03-16T11:28:15;19.13;;;14.57;;
47784;SDS011;35233;55.686;37.848;2023-03-16T11:33:38;16.27;;;13.70;;
47784;SDS011;35233;55.686;37.848;2023-03-16T11:41:57;18.23;;;14.70;;
47784;SDS011;35233;55.686;37.848;2023-03-16T11:44:27;17.95;;;15.77;;
47784;SDS011;35233;55.686;37.848;2023-03-16T11:47:05;17.77;;;14.32;;
47784;SDS011;35233;55.686;37.848;2023-03-16T11:50:03;16.80;;;14.40;;
47784;SDS011;35233;55.686;37.848;2023-03-16T11:52:43;14.88;;;13.13;;
47784;SDS011;35233;55.686;37.848;2023-03-16T12:11:53;15.95;;;14.25;;
47784;SDS011;35233;55.686;37.848;2023-03-16T12:17:21;16.13;;;14.25;;
47784;SDS011;35233;55.686;37.848;2023-03-16T12:22:46;17.98;;;14.63;;
47784;SDS011;35233;55.686;37.848;2023-03-16T12:25:21;15.57;;;13.23;;
47784;SDS011;35233;55.686;37.848;2023-03-16T12:28:01;15.30;;;13.65;;
47784;SDS011;35233;55.686;37.848;2023-03-16T12:38:52;15.50;;;13.50;;
47784;SDS011;35233;55.686;37.848;2023-03-16T12:49:39;14.65;;;12.68;;
47784;SDS011;35233;55.686;37.848;2023-03-16T12:52:06;13.82;;;11.27;;
47784;SDS011;35233;55.686;37.848;2023-03-16T12:54:33;15.07;;;12.25;;
47784;SDS011;35233;55.686;37.848;2023-03-16T12:57:05;14.05;;;11.27;;
47784;SDS011;35233;55.686;37.848;2023-03-16T12:59:35;12.88;;;11.32;;
47784;SDS011;35233;55.686;37.848;2023-03-16T13:02:13;14.25;;;10.95;;
47784;SDS011;35233;55.686;37.848;2023-03-16T13:04:43;13.25;;;10.85;;
47784;SDS011;35233;55.686;37.848;2023-03-16T13:09:50;12.65;;;10.90;;
47784;SDS011;35233;55.686;37.848;2023-03-16T13:12:23;12.10;;;10.25;;
47784;SDS011;35233;55.686;37.848;2023-03-16T13:14:50;11.18;;;9.98;;
47784;SDS011;35233;55.686;37.848;2023-03-16T13:19:45;11.30;;;9.43;;
47784;SDS011;35233;55.686;37.848;2023-03-16T13:30:32;10.90;;;9.10;;
47784;SDS011;35233;55.686;37.848;2023-03-16T13:32:59;11.52;;;9.52;;
47784;SDS011;35233;55.686;37.848;2023-03-16T13:35:32;10.25;;;8.77;;
47784;SDS011;35233;55.686;37.848;2023-03-16T13:38:05;11.25;;;9.10;;
47784;SDS011;35233;55.686;37.848;2023-03-16T13:40:31;10.95;;;9.30;;
47784;SDS011;35233;55.686;37.848;2023-03-16T13:42:57;11.25;;;9.93;;
47784;SDS011;35233;55.686;37.848;2023-03-16T13:45:27;12.75;;;9.80;;
47784;SDS011;35233;55.686;37.848;2023-03-16T13:47:57;12.23;;;10.05;;
47784;SDS011;35233;55.686;37.848;2023-03-16T13:50:24;11.80;;;10.25;;
47784;SDS011;35233;55.686;37.848;2023-03-16T13:52:57;13.07;;;11.38;;
47784;SDS011;35233;55.686;37.848;2023-03-16T13:55:34;12.48;;;10.18;;
47784;SDS011;35233;55.686;37.848;2023-03-16T13:58:01;12.48;;;11.00;;
47784;SDS011;35233;55.686;37.848;2023-03-16T14:00:29;13.68;;;11.40;;
47784;SDS011;35233;55.686;37.848;2023-03-16T14:03:02;15.32;;;12.65;;
47784;SDS011;35233;55.686;37.848;2023-03-16T14:05:45;13.93;;;11.80;;
47784;SDS011;35233;55.686;37.848;2023-03-16T14:10:46;15.02;;;12.70;;
47784;SDS011;35233;55.686;37.848;2023-03-16T14:13:22;14.90;;;12.98;;
47784;SDS011;35233;55.686;37.848;2023-03-16T14:18:27;16.55;;;14.30;;
47784;SDS011;35233;55.686;37.848;2023-03-16T14:20:54;16.45;;;13.75;;
47784;SDS011;35233;55.686;37.848;2023-03-16T14:23:24;17.63;;;14.07;;
47784;SDS011;35233;55.686;37.848;2023-03-16T14:25:55;18.65;;;15.25;;
47784;SDS011;35233;55.686;37.848;2023-03-16T14:28:26;16.85;;;14.07;;
47784;SDS011;35233;55.686;37.848;2023-03-16T14:31:00;18.53;;;14.33;;
47784;SDS011;35233;55.686;37.848;2023-03-16T14:33:33;18.63;;;14.15;;
47784;SDS011;35233;55.686;37.848;2023-03-16T14:36:08;18.05;;;14.40;;
47784;SDS011;35233;55.686;37.848;2023-03-16T14:38:36;18.60;;;15.20;;
47784;SDS011;35233;55.686;37.848;2023-03-16T14:43:36;22.95;;;15.85;;
47784;SDS011;35233;55.686;37.848;2023-03-16T14:46:05;21.27;;;16.58;;
47784;SDS011;35233;55.686;37.848;2023-03-16T14:48:32;22.45;;;16.88;;
47784;SDS011;35233;55.686;37.848;2023-03-16T14:51:00;23.90;;;17.80;;
47784;SDS011;35233;55.686;37.848;2023-03-16T14:53:27;21.75;;;17.13;;
47784;SDS011;35233;55.686;37.848;2023-03-16T14:55:53;26.73;;;17.52;;
47784;SDS011;35233;55.686;37.848;2023-03-16T14:58:22;21.63;;;16.42;;
47784;SDS011;35233;55.686;37.848;2023-03-16T15:00:49;23.88;;;16.63;;
47784;SDS011;35233;55.686;37.848;2023-03-16T15:03:19;23.30;;;17.10;;
47784;SDS011;35233;55.686;37.848;2023-03-16T15:05:49;21.95;;;16.83;;
47784;SDS011;35233;55.686;37.848;2023-03-16T15:08:16;23.35;;;17.15;;
47784;SDS011;35233;55.686;37.848;2023-03-16T15:10:47;21.73;;;16.20;;
47784;SDS011;35233;55.686;37.848;2023-03-16T15:13:14;23.25;;;16.75;;
47784;SDS011;35233;55.686;37.848;2023-03-16T15:15:59;23.65;;;17.63;;
47784;SDS011;35233;55.686;37.848;2023-03-16T15:18:27;21.70;;;16.25;;
47784;SDS011;35233;55.686;37.848;2023-03-16T15:20:52;21.25;;;15.68;;
47784;SDS011;35233;55.686;37.848;2023-03-16T15:23:19;23.23;;;16.38;;
47784;SDS011;35233;55.686;37.848;2023-03-16T15:25:45;21.25;;;16.08;;
47784;SDS011;35233;55.686;37.848;2023-03-16T15:30:38;20.77;;;16.15;;
47784;SDS011;35233;55.686;37.848;2023-03-16T15:33:04;21.95;;;15.68;;
47784;SDS011;35233;55.686;37.848;2023-03-16T15:35:30;18.95;;;14.80;;
47784;SDS011;35233;55.686;37.848;2023-03-16T15:37:56;21.05;;;15.43;;
47784;SDS011;35233;55.686;37.848;2023-03-16T15:40:23;21.48;;;15.07;;
47784;SDS011;35233;55.686;37.848;2023-03-16T15:42:52;20.05;;;15.18;;
47784;SDS011;35233;55.686;37.848;2023-03-16T15:45:19;20.48;;;15.40;;
47784;SDS011;35233;55.686;37.848;2023-03-16T15:47:50;23.55;;;15.80;;
47784;SDS011;35233;55.686;37.848;2023-03-16T15:50:18;20.33;;;14.20;;
47784;SDS011;35233;55.686;37.848;2023-03-16T15:52:46;17.20;;;14.18;;
47784;SDS011;35233;55.686;37.848;2023-03-16T15:55:16;18.98;;;14.35;;
47784;SDS011;35233;55.686;37.848;2023-03-16T15:57:45;17.65;;;13.57;;
47784;SDS011;35233;55.686;37.848;2023-03-16T16:00:33;17.83;;;13.90;;
47784;SDS011;35233;55.686;37.848;2023-03-16T16:03:00;18.08;;;13.60;;
47784;SDS011;35233;55.686;37.848;2023-03-16T16:05:26;18.25;;;13.55;;
47784;SDS011;35233;55.686;37.848;2023-03-16T16:07:53;17.15;;;13.23;;
47784;SDS011;35233;55.686;37.848;2023-03-16T16:10:19;17.50;;;13.43;;